createdAt,value
2019-03-23T00:02:17.504Z,102215.98
2019-03-23T00:04:47.847Z,102216.41
2019-03-23T00:07:18.064Z,102218.41
2019-03-23T00:09:48.253Z,102220.16
2019-03-23T00:12:18.689Z,102223.07
2019-03-23T00:14:48.893Z,102228.91
2019-03-23T00:17:19.080Z,102223.78
2019-03-23T00:19:49.285Z,102219.94
2019-03-23T00:22:19.553Z,102222.48
2019-03-23T00:24:49.755Z,102239.19
2019-03-23T00:27:19.965Z,102237.89
2019-03-23T00:29:50.330Z,102238.44
2019-03-23T00:32:20.523Z,102244.89
2019-03-23T00:34:50.744Z,102257.78
2019-03-23T00:37:20.940Z,102253.55
2019-03-23T00:39:51.190Z,102253.31
2019-03-23T00:42:21.689Z,102257.47
2019-03-23T00:44:51.909Z,102258.98
2019-03-23T00:47:22.386Z,102264.09
2019-03-23T00:49:52.683Z,102265.64
2019-03-23T00:52:22.886Z,102265.69
2019-03-23T00:54:53.265Z,102262.41
2019-03-23T00:57:23.532Z,102272.91
2019-03-23T00:59:55.105Z,102265.12
2019-03-23T01:02:27.351Z,102264.61
2019-03-23T01:04:57.713Z,102263.27
2019-03-23T01:07:28.025Z,102273.77
2019-03-23T01:09:58.212Z,102268.70
2019-03-23T01:12:28.589Z,102272.33
2019-03-23T01:14:59.216Z,102276.44
2019-03-23T01:17:29.410Z,102281.36
2019-03-23T01:19:59.651Z,102279.89
2019-03-23T01:22:29.864Z,102275.46
2019-03-23T01:25:00.355Z,102273.78
2019-03-23T01:27:30.555Z,102270.22
2019-03-23T01:30:02.036Z,102265.51
2019-03-23T01:32:32.498Z,102260.31
2019-03-23T01:35:02.703Z,102265.23
2019-03-23T01:37:33.211Z,102254.88
2019-03-23T01:40:04.073Z,102253.92
2019-03-23T01:42:34.277Z,102251.17
2019-03-23T01:45:06.927Z,102252.14
2019-03-23T01:47:37.187Z,102246.78
2019-03-23T01:50:08.104Z,102253.75
2019-03-23T01:52:38.817Z,102247.75
2019-03-23T01:55:09.563Z,102250.67
2019-03-23T01:57:40.309Z,102246.44
2019-03-23T02:00:11.787Z,102248.50
2019-03-23T02:02:43.410Z,102249.26
2019-03-23T02:05:14.005Z,102248.70
2019-03-23T02:07:44.189Z,102242.52
2019-03-23T02:10:14.670Z,102243.67
2019-03-23T02:12:44.885Z,102248.04
2019-03-23T02:15:15.769Z,102239.28
2019-03-23T02:17:45.987Z,102242.34
2019-03-23T02:20:16.358Z,102241.70
2019-03-23T02:22:46.565Z,102244.18
2019-03-23T02:25:17.040Z,102245.42
2019-03-23T02:27:47.242Z,102245.23
2019-03-23T02:30:17.733Z,102242.14
2019-03-23T02:32:47.930Z,102236.28
2019-03-23T02:35:18.143Z,102240.44
2019-03-23T02:37:48.358Z,102245.70
2019-03-23T02:40:18.650Z,102233.61
2019-03-23T02:42:49.132Z,102244.84
2019-03-23T02:45:19.690Z,102252.64
2019-03-23T02:47:49.975Z,102259.94
2019-03-23T02:50:20.198Z,102265.64
2019-03-23T02:52:52.683Z,102247.17
2019-03-23T02:55:23.078Z,102247.17
2019-03-23T02:57:53.303Z,102255.97
2019-03-23T03:00:23.506Z,102263.41
2019-03-23T03:02:53.735Z,102260.31
2019-03-23T03:05:23.962Z,102266.86
2019-03-23T03:07:54.338Z,102269.28
2019-03-23T03:10:50.323Z,102260.26
2019-03-23T03:13:20.771Z,102259.50
2019-03-23T03:15:51.533Z,102272.45
2019-03-23T03:18:22.031Z,102276.83
2019-03-23T03:20:52.254Z,102275.68
2019-03-23T03:23:22.528Z,102276.36
2019-03-23T03:25:52.979Z,102264.91
2019-03-23T03:28:23.197Z,102273.83
2019-03-23T03:30:53.429Z,102279.39
2019-03-23T03:33:23.898Z,102279.27
2019-03-23T03:35:54.462Z,102271.82
2019-03-23T03:38:24.686Z,102275.55
2019-03-23T03:40:54.893Z,102272.52
2019-03-23T03:43:25.195Z,102273.38
2019-03-23T03:45:55.674Z,102267.17
2019-03-23T03:48:25.879Z,102263.16
2019-03-23T03:50:56.156Z,102266.56
2019-03-23T03:53:27.001Z,102264.37
2019-03-23T03:55:57.280Z,102271.74
2019-03-23T03:58:27.629Z,102275.28
2019-03-23T04:00:57.843Z,102276.09
2019-03-23T04:03:28.055Z,102276.45
2019-03-23T04:05:58.440Z,102281.05
2019-03-23T04:08:28.918Z,102277.50
2019-03-23T04:10:59.186Z,102279.55
2019-03-23T04:13:29.390Z,102268.33
2019-03-23T04:15:59.613Z,102277.86
2019-03-23T04:18:30.794Z,102278.89
2019-03-23T04:21:02.262Z,102278.44
2019-03-23T04:23:32.467Z,102277.70
2019-03-23T04:26:02.736Z,102277.70
2019-03-23T04:28:32.958Z,102278.50
2019-03-23T04:31:03.377Z,102278.00
2019-03-23T04:33:33.997Z,102286.25
2019-03-23T04:36:04.519Z,102287.97
2019-03-23T04:38:34.713Z,102287.97
2019-03-23T04:41:05.729Z,102291.70
2019-03-23T04:43:36.006Z,102284.20
2019-03-23T04:46:06.711Z,102290.63
2019-03-23T04:48:36.980Z,102289.02
2019-03-23T04:51:07.203Z,102290.21
2019-03-23T04:53:37.817Z,102294.17
2019-03-23T04:56:08.029Z,102301.54
2019-03-23T04:58:38.312Z,102314.45
2019-03-23T05:01:08.509Z,102319.27
2019-03-23T05:03:38.742Z,102313.14
2019-03-23T05:06:09.229Z,102316.61
2019-03-23T05:08:39.593Z,102322.75
2019-03-23T05:11:09.788Z,102334.09
2019-03-23T05:13:40.250Z,102334.53
2019-03-23T05:16:10.440Z,102333.72
2019-03-23T05:18:41.045Z,102338.13
2019-03-23T05:21:11.233Z,102340.29
2019-03-23T05:23:41.477Z,102345.05
2019-03-23T05:26:11.653Z,102348.54
2019-03-23T05:28:41.879Z,102343.39
2019-03-23T05:31:12.242Z,102352.14
2019-03-23T05:33:42.456Z,102352.58
2019-03-23T05:36:12.647Z,102356.46
2019-03-23T05:38:44.621Z,102359.14
2019-03-23T05:41:14.849Z,102364.66
2019-03-23T05:43:45.304Z,102362.42
2019-03-23T05:46:15.521Z,102365.91
2019-03-23T05:48:46.043Z,102365.52
2019-03-23T05:51:16.981Z,102362.80
2019-03-23T05:53:47.459Z,102371.09
2019-03-23T05:56:17.683Z,102373.72
2019-03-23T05:58:48.157Z,102373.69
2019-03-23T06:01:18.693Z,102372.78
2019-03-23T06:03:49.130Z,102368.92
2019-03-23T06:06:19.514Z,102364.58
2019-03-23T06:08:54.821Z,102363.59
2019-03-23T06:11:21.618Z,102372.03
2019-03-23T06:13:52.005Z,102373.26
2019-03-23T06:16:22.400Z,102372.77
2019-03-23T06:18:52.603Z,102372.45
2019-03-23T06:21:23.017Z,102375.06
2019-03-23T06:23:53.476Z,102376.72
2019-03-23T06:26:23.678Z,102379.22
2019-03-23T06:28:53.879Z,102377.84
2019-03-23T06:31:24.119Z,102378.77
2019-03-23T06:33:54.300Z,102371.34
2019-03-23T06:36:24.594Z,102377.53
2019-03-23T06:39:04.851Z,102377.53
2019-03-23T06:41:26.732Z,102382.68
2019-03-23T06:43:56.969Z,102384.79
2019-03-23T06:46:27.170Z,102384.67
2019-03-23T06:48:57.570Z,102379.75
2019-03-23T06:51:27.936Z,102387.39
2019-03-23T06:53:58.154Z,102381.19
2019-03-23T06:56:28.514Z,102376.81
2019-03-23T06:58:59.066Z,102390.26
2019-03-23T07:01:29.430Z,102388.84
2019-03-23T07:03:59.668Z,102387.45
2019-03-23T07:06:29.909Z,102383.79
2019-03-23T07:09:00.128Z,102381.05
2019-03-23T07:11:30.565Z,102388.25
2019-03-23T07:14:01.039Z,102389.28
2019-03-23T07:16:31.494Z,102390.00
2019-03-23T07:19:01.723Z,102384.43
2019-03-23T07:21:32.215Z,102384.43
2019-03-23T07:24:02.403Z,102380.82
2019-03-23T07:26:32.793Z,102388.85
2019-03-23T07:29:03.015Z,102385.74
2019-03-23T07:31:33.226Z,102389.66
2019-03-23T07:34:06.177Z,102401.92
2019-03-23T07:36:36.665Z,102390.42
2019-03-23T07:39:08.345Z,102400.26
2019-03-23T07:41:39.061Z,102401.00
2019-03-23T07:44:09.281Z,102402.02
2019-03-23T07:46:39.500Z,102401.37
2019-03-23T07:49:09.777Z,102400.00
2019-03-23T07:51:40.288Z,102408.53
2019-03-23T07:54:10.836Z,102409.27
2019-03-23T07:56:41.028Z,102411.31
2019-03-23T07:59:11.404Z,102410.30
2019-03-23T08:01:41.607Z,102403.67
2019-03-23T08:04:11.896Z,102410.52
2019-03-23T08:06:42.702Z,102409.92
2019-03-23T08:09:20.327Z,102407.38
2019-03-23T08:11:45.443Z,102407.24
2019-03-23T08:14:16.905Z,102407.72
2019-03-23T08:16:47.325Z,102417.69
2019-03-23T08:19:17.898Z,102417.69
2019-03-23T08:21:48.112Z,102415.27
2019-03-23T08:24:18.342Z,102418.60
2019-03-23T08:26:49.706Z,102420.98
2019-03-23T08:29:20.171Z,102426.14
2019-03-23T08:31:50.364Z,102432.52
2019-03-23T08:34:20.577Z,102443.42
2019-03-23T08:36:50.802Z,102445.88
2019-03-23T08:39:21.248Z,102449.79
2019-03-23T08:41:51.480Z,102446.31
2019-03-23T08:44:21.678Z,102447.31
2019-03-23T08:46:52.052Z,102441.38
2019-03-23T08:49:22.546Z,102435.75
2019-03-23T08:51:52.832Z,102440.13
2019-03-23T08:54:23.047Z,102442.53
2019-03-23T08:56:53.443Z,102441.77
2019-03-23T08:59:23.659Z,102443.70
2019-03-23T09:01:53.870Z,102447.31
2019-03-23T09:04:24.093Z,102447.03
2019-03-23T09:06:54.284Z,102450.22
2019-03-23T09:09:24.504Z,102445.85
2019-03-23T09:11:54.978Z,102442.79
2019-03-23T09:14:25.193Z,102451.28
2019-03-23T09:19:45.689Z,102447.37
2019-03-23T09:22:15.897Z,102456.75
2019-03-23T09:24:46.133Z,102453.79
2019-03-23T09:27:16.544Z,102460.98
2019-03-23T09:29:46.973Z,102465.13
2019-03-23T09:32:17.180Z,102465.95
2019-03-23T09:34:47.388Z,102462.55
2019-03-23T09:37:17.588Z,102468.78
2019-03-23T09:39:47.921Z,102468.00
2019-03-23T09:42:18.095Z,102468.00
2019-03-23T09:44:48.680Z,102470.74
2019-03-23T09:47:19.069Z,102474.22
2019-03-23T09:49:49.279Z,102476.31
2019-03-23T09:52:19.491Z,102472.92
2019-03-23T09:54:49.703Z,102481.94
2019-03-23T09:57:19.916Z,102486.63
2019-03-23T09:59:50.138Z,102485.66
2019-03-23T10:02:20.397Z,102485.94
2019-03-23T10:04:50.858Z,102491.62
2019-03-23T10:07:21.083Z,102489.06
2019-03-23T10:09:51.340Z,102486.00
2019-03-23T10:12:21.565Z,102486.45
2019-03-23T10:14:51.770Z,102486.86
2019-03-23T10:17:22.401Z,102486.91
2019-03-23T10:19:52.596Z,102483.98
2019-03-23T10:22:23.786Z,102480.25
2019-03-23T10:24:54.063Z,102474.69
2019-03-23T10:27:24.261Z,102470.33
2019-03-23T10:29:55.029Z,102474.37
2019-03-23T10:32:25.343Z,102471.94
2019-03-23T10:34:55.535Z,102479.78
2019-03-23T10:37:26.158Z,102479.52
2019-03-23T10:39:56.330Z,102480.35
2019-03-23T10:42:26.765Z,102480.05
2019-03-23T10:44:56.996Z,102479.04
2019-03-23T10:47:27.571Z,102484.09
2019-03-23T10:49:57.785Z,102478.58
2019-03-23T10:52:27.960Z,102479.89
2019-03-23T10:54:58.174Z,102485.53
2019-03-23T10:57:28.364Z,102489.98
2019-03-23T10:59:58.602Z,102489.03
2019-03-23T11:02:28.817Z,102481.83
2019-03-23T11:04:59.016Z,102483.14
2019-03-23T11:07:29.206Z,102493.22
2019-03-23T11:10:00.460Z,102495.05
2019-03-23T11:12:30.657Z,102496.11
2019-03-23T11:15:00.862Z,102499.84
2019-03-23T11:17:31.063Z,102495.83
2019-03-23T11:20:01.282Z,102490.79
2019-03-23T11:22:31.485Z,102496.52
2019-03-23T11:25:01.695Z,102496.69
2019-03-23T11:27:31.896Z,102497.13
2019-03-23T11:30:02.102Z,102508.02
2019-03-23T11:32:32.599Z,102508.47
2019-03-23T11:35:02.828Z,102511.36
2019-03-23T11:37:33.147Z,102507.42
2019-03-23T11:40:03.450Z,102507.87
2019-03-23T11:42:33.655Z,102508.13
2019-03-23T11:45:03.983Z,102511.41
2019-03-23T11:47:34.180Z,102510.36
2019-03-23T11:50:04.917Z,102510.91
2019-03-23T11:52:35.131Z,102518.24
2019-03-23T11:55:06.351Z,102519.62
2019-03-23T11:57:37.526Z,102516.36
2019-03-23T12:00:09.346Z,102508.87
2019-03-23T12:02:39.805Z,102509.65
2019-03-23T12:05:10.284Z,102516.45
2019-03-23T12:07:40.489Z,102512.23
2019-03-23T12:10:12.747Z,102512.13
2019-03-23T12:12:43.364Z,102510.94
2019-03-23T12:15:14.365Z,102509.55
2019-03-23T12:17:44.560Z,102502.24
2019-03-23T12:20:14.956Z,102504.78
2019-03-23T12:22:45.160Z,102510.63
2019-03-23T12:25:15.365Z,102502.60
2019-03-23T12:27:45.731Z,102508.06
2019-03-23T12:30:16.685Z,102513.26
2019-03-23T12:32:46.904Z,102515.83
2019-03-23T12:35:17.132Z,102512.59
2019-03-23T12:37:47.331Z,102512.80
2019-03-23T12:40:18.226Z,102514.08
2019-03-23T12:42:48.447Z,102514.33
2019-03-23T12:45:18.791Z,102512.51
2019-03-23T12:47:48.994Z,102515.61
2019-03-23T12:50:19.214Z,102519.89
2019-03-23T12:52:49.425Z,102520.03
2019-03-23T12:55:19.636Z,102518.88
2019-03-23T12:57:49.847Z,102518.98
2019-03-23T13:00:20.357Z,102521.37
2019-03-23T13:02:51.037Z,102520.83
2019-03-23T13:05:21.253Z,102520.46
2019-03-23T13:07:52.343Z,102521.23
2019-03-23T13:10:22.552Z,102520.46
2019-03-23T13:12:52.782Z,102521.16
2019-03-23T13:15:45.674Z,102526.33
2019-03-23T13:18:15.889Z,102524.10
2019-03-23T13:20:46.102Z,102531.33
2019-03-23T13:23:16.299Z,102531.20
2019-03-23T13:25:46.773Z,102527.34
2019-03-23T13:28:16.969Z,102536.28
2019-03-23T13:30:47.409Z,102531.28
2019-03-23T13:33:17.618Z,102532.88
2019-03-23T13:35:47.825Z,102528.59
2019-03-23T13:38:18.060Z,102538.34
2019-03-23T13:40:59.855Z,102535.19
2019-03-23T13:43:36.067Z,102532.27
2019-03-23T13:46:06.336Z,102536.58
2019-03-23T13:48:36.548Z,102536.70
2019-03-23T13:51:06.743Z,102531.91
2019-03-23T13:53:37.779Z,102533.30
2019-03-23T13:56:08.009Z,102536.01
2019-03-23T13:58:38.222Z,102534.25
2019-03-23T14:01:08.881Z,102533.76
2019-03-23T14:03:39.337Z,102531.34
2019-03-23T14:06:09.866Z,102523.75
2019-03-23T14:11:28.333Z,102526.20
2019-03-23T14:13:58.564Z,102526.00
2019-03-23T14:16:29.029Z,102528.47
2019-03-23T14:18:59.228Z,102533.88
2019-03-23T14:21:29.417Z,102535.38
2019-03-23T14:23:59.624Z,102538.76
2019-03-23T14:26:30.019Z,102540.51
2019-03-23T14:29:00.224Z,102540.05
2019-03-23T14:31:30.666Z,102540.27
2019-03-23T14:34:01.163Z,102541.77
2019-03-23T14:36:31.365Z,102542.88
2019-03-23T14:39:01.571Z,102544.92
2019-03-23T14:41:32.341Z,102548.31
2019-03-23T14:44:02.612Z,102541.94
2019-03-23T14:46:32.830Z,102545.49
2019-03-23T14:49:03.034Z,102543.81
2019-03-23T14:51:33.246Z,102552.07
2019-03-23T14:54:03.441Z,102548.91
2019-03-23T14:56:33.802Z,102548.80
2019-03-23T14:59:04.085Z,102552.62
2019-03-23T15:01:34.534Z,102547.25
2019-03-23T15:04:05.440Z,102551.17
2019-03-23T15:06:35.664Z,102551.52
2019-03-23T15:09:07.280Z,102557.33
2019-03-23T15:11:37.488Z,102565.17
2019-03-23T15:14:15.319Z,102565.39
2019-03-23T15:16:45.534Z,102564.49
2019-03-23T15:19:15.992Z,102561.30
2019-03-23T15:21:46.221Z,102568.97
2019-03-23T15:24:16.427Z,102568.45
2019-03-23T15:26:46.628Z,102566.48
2019-03-23T15:29:16.843Z,102569.20
2019-03-23T15:31:47.068Z,102569.59
2019-03-23T15:34:17.257Z,102563.52
2019-03-23T15:36:47.460Z,102569.72
2019-03-23T15:39:17.662Z,102573.99
2019-03-23T15:41:49.337Z,102574.03
2019-03-23T15:44:19.536Z,102569.59
2019-03-23T15:46:49.750Z,102573.65
2019-03-23T15:49:19.941Z,102573.65
2019-03-23T15:51:50.154Z,102571.48
2019-03-23T15:54:20.377Z,102573.58
2019-03-23T15:56:50.579Z,102571.69
2019-03-23T15:59:20.786Z,102568.34
2019-03-23T16:01:50.984Z,102577.64
2019-03-23T16:04:21.342Z,102574.68
2019-03-23T16:06:51.532Z,102573.95
2019-03-23T16:09:21.813Z,102573.03
2019-03-23T16:11:52.535Z,102575.20
2019-03-23T16:14:22.987Z,102579.57
2019-03-23T16:16:53.195Z,102581.33
2019-03-23T16:19:23.668Z,102583.70
2019-03-23T16:21:53.872Z,102584.73
2019-03-23T16:24:24.062Z,102584.94
2019-03-23T16:26:54.272Z,102588.63
2019-03-23T16:29:24.472Z,102581.94
2019-03-23T16:32:00.361Z,102582.52
2019-03-23T16:34:36.211Z,102583.48
2019-03-23T16:37:06.854Z,102583.48
2019-03-23T16:39:37.073Z,102583.20
2019-03-23T16:42:07.279Z,102583.30
2019-03-23T16:44:37.720Z,102581.55
2019-03-23T16:47:07.923Z,102584.00
2019-03-23T16:49:38.126Z,102583.30
2019-03-23T16:52:08.400Z,102573.26
2019-03-23T16:54:38.595Z,102586.33
2019-03-23T16:57:08.798Z,102579.45
2019-03-23T16:59:38.980Z,102577.18
2019-03-23T17:02:09.177Z,102579.58
2019-03-23T17:04:39.362Z,102578.30
2019-03-23T17:07:09.564Z,102581.78
2019-03-23T17:09:40.003Z,102577.52
2019-03-23T17:12:10.189Z,102575.83
2019-03-23T17:14:40.371Z,102585.08
2019-03-23T17:17:10.564Z,102582.08
2019-03-23T17:19:40.751Z,102582.08
2019-03-23T17:22:10.962Z,102586.30
2019-03-23T17:24:41.141Z,102582.37
2019-03-23T17:27:11.484Z,102581.95
2019-03-23T17:29:41.674Z,102581.95
2019-03-23T17:32:11.879Z,102582.13
2019-03-23T17:34:42.137Z,102586.33
2019-03-23T17:37:12.330Z,102585.98
2019-03-23T17:39:42.812Z,102583.59
2019-03-23T17:42:13.012Z,102592.36
2019-03-23T17:44:43.289Z,102589.84
2019-03-23T17:47:13.584Z,102591.63
2019-03-23T17:49:45.340Z,102591.36
2019-03-23T17:52:15.621Z,102593.30
2019-03-23T17:54:45.821Z,102591.26
2019-03-23T17:57:16.097Z,102593.10
2019-03-23T17:59:47.521Z,102597.94
2019-03-23T18:02:17.735Z,102602.84
2019-03-23T18:04:47.930Z,102598.56
2019-03-23T18:07:18.120Z,102596.91
2019-03-23T18:09:48.315Z,102595.38
2019-03-23T18:12:18.591Z,102593.74
2019-03-23T18:14:48.798Z,102600.78
2019-03-23T18:17:18.998Z,102607.89
2019-03-23T18:19:49.179Z,102608.52
2019-03-23T18:22:19.367Z,102609.11
2019-03-23T18:24:49.580Z,102618.45
2019-03-23T18:27:19.756Z,102612.05
2019-03-23T18:29:49.969Z,102621.38
2019-03-23T18:32:20.244Z,102627.19
2019-03-23T18:34:50.606Z,102629.11
2019-03-23T18:37:20.807Z,102634.02
2019-03-23T18:39:51.021Z,102639.31
2019-03-23T18:42:21.220Z,102645.17
2019-03-23T18:44:51.448Z,102641.81
2019-03-23T18:47:21.787Z,102644.53
2019-03-23T18:49:52.066Z,102646.78
2019-03-23T18:52:22.257Z,102649.08
2019-03-23T18:54:52.544Z,102643.61
2019-03-23T18:57:22.738Z,102644.10
2019-03-23T18:59:53.200Z,102651.06
2019-03-23T19:02:23.514Z,102652.50
2019-03-23T19:04:53.801Z,102648.70
2019-03-23T19:07:23.954Z,102655.22
2019-03-23T19:09:54.166Z,102657.52
2019-03-23T19:12:24.359Z,102663.34
2019-03-23T19:14:54.559Z,102661.41
2019-03-23T19:17:24.756Z,102660.73
2019-03-23T19:19:54.962Z,102658.41
2019-03-23T19:22:25.973Z,102663.86
2019-03-23T19:24:56.180Z,102657.17
2019-03-23T19:27:26.382Z,102660.34
2019-03-23T19:29:56.584Z,102668.17
2019-03-23T19:32:26.786Z,102667.09
2019-03-23T19:34:57.299Z,102669.32
2019-03-23T19:37:27.494Z,102665.14
2019-03-23T19:39:57.676Z,102671.72
2019-03-23T19:42:27.882Z,102668.02
2019-03-23T19:44:58.309Z,102674.16
2019-03-23T19:47:28.603Z,102684.29
2019-03-23T19:49:58.814Z,102678.31
2019-03-23T19:52:29.010Z,102672.44
2019-03-23T19:54:59.461Z,102676.02
2019-03-23T19:57:29.642Z,102670.05
2019-03-23T19:59:59.833Z,102679.31
2019-03-23T20:02:30.014Z,102681.59
2019-03-23T20:05:00.382Z,102676.09
2019-03-23T20:07:33.249Z,102684.44
2019-03-23T20:10:02.968Z,102680.30
2019-03-23T20:12:33.146Z,102685.49
2019-03-23T20:15:03.434Z,102685.98
2019-03-23T20:17:33.703Z,102691.70
2019-03-23T20:20:04.703Z,102689.11
2019-03-23T20:22:35.064Z,102693.15
2019-03-23T20:25:06.762Z,102689.88
2019-03-23T20:27:37.917Z,102692.95
2019-03-23T20:30:09.682Z,102688.76
2019-03-23T20:32:39.867Z,102682.39
2019-03-23T20:35:10.832Z,102682.57
2019-03-23T20:37:41.020Z,102686.21
2019-03-23T20:40:13.374Z,102681.06
2019-03-23T20:42:44.379Z,102684.09
2019-03-23T20:45:19.046Z,102682.44
2019-03-23T20:47:49.755Z,102678.55
2019-03-23T20:50:19.977Z,102673.44
2019-03-23T20:52:50.592Z,102674.48
2019-03-23T20:55:28.400Z,102669.36
2019-03-23T20:57:59.157Z,102672.48
2019-03-23T21:00:29.346Z,102678.63
2019-03-23T21:02:59.739Z,102672.69
2019-03-23T21:05:34.124Z,102670.17
2019-03-23T21:08:01.991Z,102671.03
2019-03-23T21:10:32.294Z,102671.04
2019-03-23T21:13:02.790Z,102668.91
2019-03-23T21:15:33.000Z,102669.00
2019-03-23T21:18:03.385Z,102673.41
2019-03-23T21:20:33.581Z,102665.70
2019-03-23T21:23:03.954Z,102657.56
2019-03-23T21:25:34.329Z,102661.97
2019-03-23T21:28:04.774Z,102663.77
2019-03-23T21:30:34.968Z,102665.11
2019-03-23T21:33:05.389Z,102660.47
2019-03-23T21:35:35.584Z,102657.98
2019-03-23T21:38:06.089Z,102655.54
2019-03-23T21:40:36.670Z,102664.73
2019-03-23T21:43:06.875Z,102662.61
2019-03-23T21:45:37.063Z,102658.86
2019-03-23T21:48:07.823Z,102664.95
2019-03-23T21:50:47.033Z,102662.39
2019-03-23T21:53:11.023Z,102664.55
2019-03-23T21:55:41.204Z,102660.73
2019-03-23T21:58:11.395Z,102659.94
2019-03-23T22:00:41.598Z,102656.12
2019-03-23T22:03:11.782Z,102650.09
2019-03-23T22:05:42.163Z,102647.97
2019-03-23T22:08:12.417Z,102650.16
2019-03-23T22:10:42.620Z,102641.95
2019-03-23T22:13:12.816Z,102644.25
2019-03-23T22:15:43.387Z,102649.53
2019-03-23T22:18:13.574Z,102649.11
2019-03-23T22:20:43.764Z,102643.48
2019-03-23T22:23:13.966Z,102645.64
2019-03-23T22:25:44.147Z,102639.66
2019-03-23T22:28:14.375Z,102637.53
2019-03-23T22:30:44.550Z,102639.36
2019-03-23T22:33:14.998Z,102635.14
2019-03-23T22:35:45.178Z,102637.83
2019-03-23T22:38:15.683Z,102639.62
2019-03-23T22:40:46.199Z,102641.81
2019-03-23T22:43:16.751Z,102636.22
2019-03-23T22:45:46.943Z,102640.58
2019-03-23T22:48:17.435Z,102635.82
2019-03-23T22:50:47.606Z,102635.05
2019-03-23T22:53:17.802Z,102630.79
2019-03-23T22:55:48.128Z,102622.64
2019-03-23T22:58:18.339Z,102626.07
2019-03-23T23:00:50.027Z,102626.50
2019-03-23T23:03:21.578Z,102628.75
2019-03-23T23:05:51.845Z,102625.78
2019-03-23T23:08:22.348Z,102616.31
2019-03-23T23:10:52.654Z,102612.86
2019-03-23T23:13:22.846Z,102611.59
2019-03-23T23:15:53.289Z,102606.01
2019-03-23T23:18:23.499Z,102610.78
2019-03-23T23:20:53.672Z,102616.48
2019-03-23T23:23:24.155Z,102613.98
2019-03-23T23:25:54.338Z,102606.21
2019-03-23T23:28:24.711Z,102604.91
2019-03-23T23:30:54.922Z,102607.13
2019-03-23T23:33:25.757Z,102604.11
2019-03-23T23:35:55.954Z,102601.52
2019-03-23T23:38:26.321Z,102605.40
2019-03-23T23:40:56.645Z,102607.62
2019-03-23T23:43:26.962Z,102602.90
2019-03-23T23:45:57.232Z,102609.40
2019-03-23T23:48:27.421Z,102606.91
2019-03-23T23:50:57.612Z,102606.97
2019-03-23T23:53:28.078Z,102609.56
2019-03-23T23:55:58.283Z,102607.89
2019-03-23T23:58:28.456Z,102605.33
